sensor_id;sensor_type;location;lat;lon;timestamp;temperature;humidity
61807;DHT22;47726;52.766;6.606;2022-08-05T00:02:03;20.60;99.90
61807;DHT22;47726;52.766;6.606;2022-08-05T00:04:29;20.60;99.90
61807;DHT22;47726;52.766;6.606;2022-08-05T00:06:54;20.60;99.90
61807;DHT22;47726;52.766;6.606;2022-08-05T00:09:20;20.50;99.90
61807;DHT22;47726;52.766;6.606;2022-08-05T00:11:47;20.50;99.90
61807;DHT22;47726;52.766;6.606;2022-08-05T00:14:12;20.50;99.90
61807;DHT22;47726;52.766;6.606;2022-08-05T00:16:38;20.50;99.90
61807;DHT22;47726;52.766;6.606;2022-08-05T00:19:03;20.50;99.90
61807;DHT22;47726;52.766;6.606;2022-08-05T00:21:30;20.50;99.90
61807;DHT22;47726;52.766;6.606;2022-08-05T00:23:55;20.40;99.90
61807;DHT22;47726;52.766;6.606;2022-08-05T00:26:21;20.40;99.90
61807;DHT22;47726;52.766;6.606;2022-08-05T00:28:47;20.40;99.90
61807;DHT22;47726;52.766;6.606;2022-08-05T00:31:12;20.40;99.90
61807;DHT22;47726;52.766;6.606;2022-08-05T00:33:38;20.30;99.90
61807;DHT22;47726;52.766;6.606;2022-08-05T00:36:04;20.30;99.90
61807;DHT22;47726;52.766;6.606;2022-08-05T00:38:30;20.30;99.90
61807;DHT22;47726;52.766;6.606;2022-08-05T00:40:56;20.30;99.90
61807;DHT22;47726;52.766;6.606;2022-08-05T00:43:23;20.30;99.90
61807;DHT22;47726;52.766;6.606;2022-08-05T00:45:49;20.30;99.90
61807;DHT22;47726;52.766;6.606;2022-08-05T00:48:18;20.30;99.90
61807;DHT22;47726;52.766;6.606;2022-08-05T00:50:45;20.20;99.90
61807;DHT22;47726;52.766;6.606;2022-08-05T00:53:12;20.20;99.90
61807;DHT22;47726;52.766;6.606;2022-08-05T00:55:38;20.30;99.90
61807;DHT22;47726;52.766;6.606;2022-08-05T00:58:03;20.20;99.90
61807;DHT22;47726;52.766;6.606;2022-08-05T01:00:30;20.20;99.90
61807;DHT22;47726;52.766;6.606;2022-08-05T01:02:56;20.20;99.90
61807;DHT22;47726;52.766;6.606;2022-08-05T01:05:23;20.20;99.90
61807;DHT22;47726;52.766;6.606;2022-08-05T01:07:49;20.20;99.90
61807;DHT22;47726;52.766;6.606;2022-08-05T01:10:16;20.20;99.90
61807;DHT22;47726;52.766;6.606;2022-08-05T01:12:47;20.20;99.90
61807;DHT22;47726;52.766;6.606;2022-08-05T01:15:20;20.10;99.90
61807;DHT22;47726;52.766;6.606;2022-08-05T01:17:50;20.20;99.90
61807;DHT22;47726;52.766;6.606;2022-08-05T01:28:15;20.10;99.90
61807;DHT22;47726;52.766;6.606;2022-08-05T01:31:11;20.10;99.90
61807;DHT22;47726;52.766;6.606;2022-08-05T01:34:13;20.10;99.90
61807;DHT22;47726;52.766;6.606;2022-08-05T01:36:43;20.10;99.90
61807;DHT22;47726;52.766;6.606;2022-08-05T01:39:12;20.10;99.90
61807;DHT22;47726;52.766;6.606;2022-08-05T01:41:38;20.10;99.90
61807;DHT22;47726;52.766;6.606;2022-08-05T01:44:06;20.10;99.90
61807;DHT22;47726;52.766;6.606;2022-08-05T01:46:34;20.00;99.90
61807;DHT22;47726;52.766;6.606;2022-08-05T01:49:01;20.00;99.90
61807;DHT22;47726;52.766;6.606;2022-08-05T01:51:33;20.00;99.90
61807;DHT22;47726;52.766;6.606;2022-08-05T01:54:02;20.00;99.90
61807;DHT22;47726;52.766;6.606;2022-08-05T01:56:32;20.00;99.90
61807;DHT22;47726;52.766;6.606;2022-08-05T01:59:02;20.00;99.90
61807;DHT22;47726;52.766;6.606;2022-08-05T02:01:29;20.00;99.90
61807;DHT22;47726;52.766;6.606;2022-08-05T02:03:58;20.00;99.90
61807;DHT22;47726;52.766;6.606;2022-08-05T02:06:24;20.00;99.90
61807;DHT22;47726;52.766;6.606;2022-08-05T02:08:50;20.00;99.90
61807;DHT22;47726;52.766;6.606;2022-08-05T02:11:17;19.90;99.90
61807;DHT22;47726;52.766;6.606;2022-08-05T02:14:02;19.90;99.90
61807;DHT22;47726;52.766;6.606;2022-08-05T02:16:52;19.90;99.90
61807;DHT22;47726;52.766;6.606;2022-08-05T02:19:36;19.90;99.90
61807;DHT22;47726;52.766;6.606;2022-08-05T02:22:12;19.90;99.90
61807;DHT22;47726;52.766;6.606;2022-08-05T02:24:40;19.90;99.90
61807;DHT22;47726;52.766;6.606;2022-08-05T02:27:10;19.90;99.90
61807;DHT22;47726;52.766;6.606;2022-08-05T02:29:40;19.90;99.90
61807;DHT22;47726;52.766;6.606;2022-08-05T02:32:08;19.90;99.90
61807;DHT22;47726;52.766;6.606;2022-08-05T02:34:36;19.90;99.90
61807;DHT22;47726;52.766;6.606;2022-08-05T02:37:04;19.90;99.90
61807;DHT22;47726;52.766;6.606;2022-08-05T02:39:36;19.80;99.90
61807;DHT22;47726;52.766;6.606;2022-08-05T02:42:04;19.80;99.90
61807;DHT22;47726;52.766;6.606;2022-08-05T02:44:33;19.80;99.90
61807;DHT22;47726;52.766;6.606;2022-08-05T02:47:02;19.80;99.90
61807;DHT22;47726;52.766;6.606;2022-08-05T02:49:31;19.80;99.90
61807;DHT22;47726;52.766;6.606;2022-08-05T02:51:58;19.80;99.90
61807;DHT22;47726;52.766;6.606;2022-08-05T02:54:25;19.80;99.90
61807;DHT22;47726;52.766;6.606;2022-08-05T02:56:52;19.80;99.90
61807;DHT22;47726;52.766;6.606;2022-08-05T02:59:18;19.70;99.90
61807;DHT22;47726;52.766;6.606;2022-08-05T03:01:44;19.80;99.90
61807;DHT22;47726;52.766;6.606;2022-08-05T03:04:13;19.70;99.90
61807;DHT22;47726;52.766;6.606;2022-08-05T03:06:40;19.70;99.90
61807;DHT22;47726;52.766;6.606;2022-08-05T03:09:07;19.70;99.90
61807;DHT22;47726;52.766;6.606;2022-08-05T03:11:35;19.70;99.90
61807;DHT22;47726;52.766;6.606;2022-08-05T03:14:01;19.70;99.90
61807;DHT22;47726;52.766;6.606;2022-08-05T03:16:26;19.70;99.90
61807;DHT22;47726;52.766;6.606;2022-08-05T03:18:52;19.70;99.90
61807;DHT22;47726;52.766;6.606;2022-08-05T03:21:18;19.70;99.90
61807;DHT22;47726;52.766;6.606;2022-08-05T03:23:44;19.70;99.90
61807;DHT22;47726;52.766;6.606;2022-08-05T03:26:09;19.60;99.90
61807;DHT22;47726;52.766;6.606;2022-08-05T03:28:36;19.60;99.90
61807;DHT22;47726;52.766;6.606;2022-08-05T03:31:03;19.60;99.90
61807;DHT22;47726;52.766;6.606;2022-08-05T03:33:30;19.60;99.90
61807;DHT22;47726;52.766;6.606;2022-08-05T03:35:57;19.60;99.90
61807;DHT22;47726;52.766;6.606;2022-08-05T03:38:24;19.60;99.90
61807;DHT22;47726;52.766;6.606;2022-08-05T03:40:50;19.50;99.90
61807;DHT22;47726;52.766;6.606;2022-08-05T03:43:18;19.50;99.90
61807;DHT22;47726;52.766;6.606;2022-08-05T03:45:45;19.50;99.90
61807;DHT22;47726;52.766;6.606;2022-08-05T03:48:11;19.60;99.90
61807;DHT22;47726;52.766;6.606;2022-08-05T03:50:59;19.50;99.90
61807;DHT22;47726;52.766;6.606;2022-08-05T03:56:24;19.50;99.90
61807;DHT22;47726;52.766;6.606;2022-08-05T03:58:52;19.50;99.90
61807;DHT22;47726;52.766;6.606;2022-08-05T04:01:20;19.50;99.90
61807;DHT22;47726;52.766;6.606;2022-08-05T04:03:49;19.50;99.90
61807;DHT22;47726;52.766;6.606;2022-08-05T04:06:16;19.50;99.90
61807;DHT22;47726;52.766;6.606;2022-08-05T04:08:43;19.40;99.90
61807;DHT22;47726;52.766;6.606;2022-08-05T04:11:10;19.50;99.90
61807;DHT22;47726;52.766;6.606;2022-08-05T04:13:38;19.50;99.90
61807;DHT22;47726;52.766;6.606;2022-08-05T04:16:06;19.50;99.90
61807;DHT22;47726;52.766;6.606;2022-08-05T04:18:33;19.40;99.90
61807;DHT22;47726;52.766;6.606;2022-08-05T04:20:59;19.40;99.90
61807;DHT22;47726;52.766;6.606;2022-08-05T04:23:26;19.50;99.90
61807;DHT22;47726;52.766;6.606;2022-08-05T04:25:52;19.40;99.90
61807;DHT22;47726;52.766;6.606;2022-08-05T04:28:21;19.40;99.90
61807;DHT22;47726;52.766;6.606;2022-08-05T04:30:47;19.40;99.90
61807;DHT22;47726;52.766;6.606;2022-08-05T04:33:13;19.40;99.90
61807;DHT22;47726;52.766;6.606;2022-08-05T04:35:40;19.40;99.90
61807;DHT22;47726;52.766;6.606;2022-08-05T04:38:06;19.30;99.90
61807;DHT22;47726;52.766;6.606;2022-08-05T04:40:36;19.30;99.90
61807;DHT22;47726;52.766;6.606;2022-08-05T04:43:03;19.40;99.90
61807;DHT22;47726;52.766;6.606;2022-08-05T04:45:29;19.30;99.90
61807;DHT22;47726;52.766;6.606;2022-08-05T04:48:03;19.30;99.90
61807;DHT22;47726;52.766;6.606;2022-08-05T04:50:29;19.30;99.90
61807;DHT22;47726;52.766;6.606;2022-08-05T04:52:54;19.30;99.90
61807;DHT22;47726;52.766;6.606;2022-08-05T04:55:20;19.30;99.90
61807;DHT22;47726;52.766;6.606;2022-08-05T04:57:46;19.30;99.90
61807;DHT22;47726;52.766;6.606;2022-08-05T05:00:12;19.30;99.90
61807;DHT22;47726;52.766;6.606;2022-08-05T05:02:37;19.30;99.90
61807;DHT22;47726;52.766;6.606;2022-08-05T05:05:04;19.30;99.90
61807;DHT22;47726;52.766;6.606;2022-08-05T05:07:30;19.30;99.90
61807;DHT22;47726;52.766;6.606;2022-08-05T05:09:56;19.20;99.90
61807;DHT22;47726;52.766;6.606;2022-08-05T05:12:22;19.30;99.90
61807;DHT22;47726;52.766;6.606;2022-08-05T05:14:48;19.20;99.90
61807;DHT22;47726;52.766;6.606;2022-08-05T05:17:14;19.20;99.90
61807;DHT22;47726;52.766;6.606;2022-08-05T05:19:40;19.20;99.90
61807;DHT22;47726;52.766;6.606;2022-08-05T05:22:06;19.30;99.90
61807;DHT22;47726;52.766;6.606;2022-08-05T05:24:32;19.30;99.90
61807;DHT22;47726;52.766;6.606;2022-08-05T05:26:57;19.30;99.90
61807;DHT22;47726;52.766;6.606;2022-08-05T05:29:23;19.30;99.90
61807;DHT22;47726;52.766;6.606;2022-08-05T05:31:49;19.30;99.90
61807;DHT22;47726;52.766;6.606;2022-08-05T05:34:15;19.30;99.90
61807;DHT22;47726;52.766;6.606;2022-08-05T05:36:40;19.30;99.90
61807;DHT22;47726;52.766;6.606;2022-08-05T05:39:06;19.30;99.90
61807;DHT22;47726;52.766;6.606;2022-08-05T05:41:31;19.30;99.90
61807;DHT22;47726;52.766;6.606;2022-08-05T05:43:58;19.30;99.90
61807;DHT22;47726;52.766;6.606;2022-08-05T05:46:23;19.30;99.90
61807;DHT22;47726;52.766;6.606;2022-08-05T05:48:49;19.30;99.90
61807;DHT22;47726;52.766;6.606;2022-08-05T05:51:19;19.30;99.90
61807;DHT22;47726;52.766;6.606;2022-08-05T05:53:45;19.30;99.90
61807;DHT22;47726;52.766;6.606;2022-08-05T05:56:10;19.30;99.90
61807;DHT22;47726;52.766;6.606;2022-08-05T05:58:36;19.30;99.90
61807;DHT22;47726;52.766;6.606;2022-08-05T06:01:02;19.30;99.90
61807;DHT22;47726;52.766;6.606;2022-08-05T06:03:27;19.30;99.90
61807;DHT22;47726;52.766;6.606;2022-08-05T06:05:53;19.30;99.90
61807;DHT22;47726;52.766;6.606;2022-08-05T06:08:18;19.30;99.90
61807;DHT22;47726;52.766;6.606;2022-08-05T06:10:44;19.30;99.90
61807;DHT22;47726;52.766;6.606;2022-08-05T06:13:10;19.30;99.90
61807;DHT22;47726;52.766;6.606;2022-08-05T06:15:35;19.30;99.90
61807;DHT22;47726;52.766;6.606;2022-08-05T06:18:01;19.40;99.90
61807;DHT22;47726;52.766;6.606;2022-08-05T06:20:26;19.40;99.90
61807;DHT22;47726;52.766;6.606;2022-08-05T06:22:52;19.40;99.90
61807;DHT22;47726;52.766;6.606;2022-08-05T06:25:18;19.50;99.90
61807;DHT22;47726;52.766;6.606;2022-08-05T06:27:43;19.50;99.90
61807;DHT22;47726;52.766;6.606;2022-08-05T06:30:09;19.50;99.90
61807;DHT22;47726;52.766;6.606;2022-08-05T06:32:42;19.50;99.90
61807;DHT22;47726;52.766;6.606;2022-08-05T06:35:09;19.50;99.90
61807;DHT22;47726;52.766;6.606;2022-08-05T06:37:34;19.50;99.90
61807;DHT22;47726;52.766;6.606;2022-08-05T06:40:00;19.50;99.90
61807;DHT22;47726;52.766;6.606;2022-08-05T06:42:26;19.60;99.90
61807;DHT22;47726;52.766;6.606;2022-08-05T06:44:51;19.60;99.90
61807;DHT22;47726;52.766;6.606;2022-08-05T06:47:17;19.60;99.90
61807;DHT22;47726;52.766;6.606;2022-08-05T06:49:43;19.60;99.90
61807;DHT22;47726;52.766;6.606;2022-08-05T06:52:08;19.60;99.90
61807;DHT22;47726;52.766;6.606;2022-08-05T06:54:34;19.70;99.90
61807;DHT22;47726;52.766;6.606;2022-08-05T06:56:59;19.60;99.90
61807;DHT22;47726;52.766;6.606;2022-08-05T06:59:25;19.70;99.90
61807;DHT22;47726;52.766;6.606;2022-08-05T07:01:51;19.70;99.90
61807;DHT22;47726;52.766;6.606;2022-08-05T07:04:16;19.70;99.90
61807;DHT22;47726;52.766;6.606;2022-08-05T07:06:42;19.70;99.90
61807;DHT22;47726;52.766;6.606;2022-08-05T07:09:08;19.80;99.90
61807;DHT22;47726;52.766;6.606;2022-08-05T07:11:33;19.80;99.90
61807;DHT22;47726;52.766;6.606;2022-08-05T07:13:59;19.90;99.90
61807;DHT22;47726;52.766;6.606;2022-08-05T07:16:43;19.90;99.90
61807;DHT22;47726;52.766;6.606;2022-08-05T07:19:19;20.00;99.90
61807;DHT22;47726;52.766;6.606;2022-08-05T07:21:47;20.00;99.90
61807;DHT22;47726;52.766;6.606;2022-08-05T07:24:13;20.00;99.90
61807;DHT22;47726;52.766;6.606;2022-08-05T07:26:40;20.10;99.90
61807;DHT22;47726;52.766;6.606;2022-08-05T07:29:06;20.10;99.90
61807;DHT22;47726;52.766;6.606;2022-08-05T07:31:32;20.20;99.90
61807;DHT22;47726;52.766;6.606;2022-08-05T07:33:58;20.20;99.90
61807;DHT22;47726;52.766;6.606;2022-08-05T07:36:23;20.40;99.90
61807;DHT22;47726;52.766;6.606;2022-08-05T07:38:49;20.50;99.90
61807;DHT22;47726;52.766;6.606;2022-08-05T07:41:17;20.60;99.90
61807;DHT22;47726;52.766;6.606;2022-08-05T07:43:44;20.70;99.90
61807;DHT22;47726;52.766;6.606;2022-08-05T07:46:10;20.80;99.90
61807;DHT22;47726;52.766;6.606;2022-08-05T07:48:36;20.80;99.90
61807;DHT22;47726;52.766;6.606;2022-08-05T07:51:01;20.90;99.90
61807;DHT22;47726;52.766;6.606;2022-08-05T07:53:27;21.00;99.90
61807;DHT22;47726;52.766;6.606;2022-08-05T07:55:53;21.20;99.90
61807;DHT22;47726;52.766;6.606;2022-08-05T07:58:18;21.30;99.90
61807;DHT22;47726;52.766;6.606;2022-08-05T08:00:44;21.30;99.90
61807;DHT22;47726;52.766;6.606;2022-08-05T08:03:10;21.60;99.90
61807;DHT22;47726;52.766;6.606;2022-08-05T08:05:38;21.70;99.90
61807;DHT22;47726;52.766;6.606;2022-08-05T08:08:03;21.90;99.90
61807;DHT22;47726;52.766;6.606;2022-08-05T08:10:29;22.00;99.90
61807;DHT22;47726;52.766;6.606;2022-08-05T08:12:55;22.00;99.90
61807;DHT22;47726;52.766;6.606;2022-08-05T08:15:20;22.00;99.90
61807;DHT22;47726;52.766;6.606;2022-08-05T08:17:46;22.00;99.90
61807;DHT22;47726;52.766;6.606;2022-08-05T08:20:12;22.00;99.90
61807;DHT22;47726;52.766;6.606;2022-08-05T08:22:38;22.00;99.90
61807;DHT22;47726;52.766;6.606;2022-08-05T08:25:04;22.00;99.90
61807;DHT22;47726;52.766;6.606;2022-08-05T08:27:31;21.90;99.90
61807;DHT22;47726;52.766;6.606;2022-08-05T08:29:56;21.90;99.90
61807;DHT22;47726;52.766;6.606;2022-08-05T08:32:22;21.90;99.90
61807;DHT22;47726;52.766;6.606;2022-08-05T08:34:48;22.00;99.90
61807;DHT22;47726;52.766;6.606;2022-08-05T08:37:15;22.00;99.90
61807;DHT22;47726;52.766;6.606;2022-08-05T08:39:40;22.00;99.90
61807;DHT22;47726;52.766;6.606;2022-08-05T08:42:08;22.00;99.90
61807;DHT22;47726;52.766;6.606;2022-08-05T08:44:35;22.10;99.90
61807;DHT22;47726;52.766;6.606;2022-08-05T08:47:06;22.10;99.90
61807;DHT22;47726;52.766;6.606;2022-08-05T08:49:33;22.00;99.90
61807;DHT22;47726;52.766;6.606;2022-08-05T08:52:15;22.00;99.90
61807;DHT22;47726;52.766;6.606;2022-08-05T08:54:42;22.00;99.90
61807;DHT22;47726;52.766;6.606;2022-08-05T08:57:07;22.00;99.90
61807;DHT22;47726;52.766;6.606;2022-08-05T08:59:34;22.10;99.90
61807;DHT22;47726;52.766;6.606;2022-08-05T09:02:03;22.20;99.90
61807;DHT22;47726;52.766;6.606;2022-08-05T09:04:32;22.30;99.90
61807;DHT22;47726;52.766;6.606;2022-08-05T09:06:58;22.30;99.90
61807;DHT22;47726;52.766;6.606;2022-08-05T09:09:23;22.40;99.90
61807;DHT22;47726;52.766;6.606;2022-08-05T09:11:49;22.50;99.90
61807;DHT22;47726;52.766;6.606;2022-08-05T09:14:15;22.70;99.90
61807;DHT22;47726;52.766;6.606;2022-08-05T09:16:40;22.80;99.90
61807;DHT22;47726;52.766;6.606;2022-08-05T09:19:07;23.00;99.40
61807;DHT22;47726;52.766;6.606;2022-08-05T09:21:33;23.20;99.20
61807;DHT22;47726;52.766;6.606;2022-08-05T09:24:06;23.50;98.80
61807;DHT22;47726;52.766;6.606;2022-08-05T09:26:34;23.60;97.40
61807;DHT22;47726;52.766;6.606;2022-08-05T09:29:02;23.70;97.00
61807;DHT22;47726;52.766;6.606;2022-08-05T09:31:30;23.60;96.40
61807;DHT22;47726;52.766;6.606;2022-08-05T09:33:58;23.50;96.00
61807;DHT22;47726;52.766;6.606;2022-08-05T09:36:45;23.40;94.90
61807;DHT22;47726;52.766;6.606;2022-08-05T09:39:15;23.30;94.00
61807;DHT22;47726;52.766;6.606;2022-08-05T09:41:57;23.20;94.00
61807;DHT22;47726;52.766;6.606;2022-08-05T09:44:38;23.20;93.10
61807;DHT22;47726;52.766;6.606;2022-08-05T09:47:19;23.30;93.80
61807;DHT22;47726;52.766;6.606;2022-08-05T09:49:47;23.30;93.40
61807;DHT22;47726;52.766;6.606;2022-08-05T09:54:56;23.40;93.50
61807;DHT22;47726;52.766;6.606;2022-08-05T09:57:48;23.50;92.70
61807;DHT22;47726;52.766;6.606;2022-08-05T10:00:18;23.80;92.20
61807;DHT22;47726;52.766;6.606;2022-08-05T10:05:13;24.20;91.60
61807;DHT22;47726;52.766;6.606;2022-08-05T10:07:51;24.30;91.20
61807;DHT22;47726;52.766;6.606;2022-08-05T10:10:22;24.40;89.40
61807;DHT22;47726;52.766;6.606;2022-08-05T10:15:24;24.70;87.50
61807;DHT22;47726;52.766;6.606;2022-08-05T10:20:49;25.10;84.80
61807;DHT22;47726;52.766;6.606;2022-08-05T10:25:43;25.50;79.50
61807;DHT22;47726;52.766;6.606;2022-08-05T10:28:09;25.60;77.70
61807;DHT22;47726;52.766;6.606;2022-08-05T10:30:36;25.80;77.20
61807;DHT22;47726;52.766;6.606;2022-08-05T10:33:04;26.00;76.30
61807;DHT22;47726;52.766;6.606;2022-08-05T10:35:31;26.10;76.20
61807;DHT22;47726;52.766;6.606;2022-08-05T10:37:57;26.20;74.60
61807;DHT22;47726;52.766;6.606;2022-08-05T10:40:35;26.30;72.80
61807;DHT22;47726;52.766;6.606;2022-08-05T10:46:07;26.50;71.60
61807;DHT22;47726;52.766;6.606;2022-08-05T10:48:43;26.60;71.00
61807;DHT22;47726;52.766;6.606;2022-08-05T10:58:35;26.80;66.70
61807;DHT22;47726;52.766;6.606;2022-08-05T11:01:11;26.80;64.60
61807;DHT22;47726;52.766;6.606;2022-08-05T11:09:26;27.00;62.60
61807;DHT22;47726;52.766;6.606;2022-08-05T11:11:53;27.00;63.40
61807;DHT22;47726;52.766;6.606;2022-08-05T11:14:33;27.00;62.70
61807;DHT22;47726;52.766;6.606;2022-08-05T11:17:24;27.00;61.70
61807;DHT22;47726;52.766;6.606;2022-08-05T11:19:53;27.00;56.90
61807;DHT22;47726;52.766;6.606;2022-08-05T11:35:59;27.10;55.60
61807;DHT22;47726;52.766;6.606;2022-08-05T11:41:07;27.20;53.90
61807;DHT22;47726;52.766;6.606;2022-08-05T11:43:34;27.20;54.70
61807;DHT22;47726;52.766;6.606;2022-08-05T11:46:00;27.20;54.50
61807;DHT22;47726;52.766;6.606;2022-08-05T11:48:26;27.30;54.30
61807;DHT22;47726;52.766;6.606;2022-08-05T11:50:53;27.40;54.30
61807;DHT22;47726;52.766;6.606;2022-08-05T11:53:20;27.30;52.90
61807;DHT22;47726;52.766;6.606;2022-08-05T11:55:57;27.10;52.00
61807;DHT22;47726;52.766;6.606;2022-08-05T11:58:38;26.80;51.90
61807;DHT22;47726;52.766;6.606;2022-08-05T12:01:10;26.80;52.90
61807;DHT22;47726;52.766;6.606;2022-08-05T12:03:49;26.80;53.30
61807;DHT22;47726;52.766;6.606;2022-08-05T12:06:18;26.70;51.10
61807;DHT22;47726;52.766;6.606;2022-08-05T12:08:52;26.60;52.60
61807;DHT22;47726;52.766;6.606;2022-08-05T12:11:29;26.50;52.10
61807;DHT22;47726;52.766;6.606;2022-08-05T12:14:00;26.40;52.40
61807;DHT22;47726;52.766;6.606;2022-08-05T12:16:34;26.20;53.20
61807;DHT22;47726;52.766;6.606;2022-08-05T12:18:59;26.10;54.50
61807;DHT22;47726;52.766;6.606;2022-08-05T12:21:30;26.10;55.00
61807;DHT22;47726;52.766;6.606;2022-08-05T12:29:00;26.50;56.70
61807;DHT22;47726;52.766;6.606;2022-08-05T12:31:26;26.70;57.10
61807;DHT22;47726;52.766;6.606;2022-08-05T12:33:52;26.80;56.80
61807;DHT22;47726;52.766;6.606;2022-08-05T12:36:19;26.80;56.70
61807;DHT22;47726;52.766;6.606;2022-08-05T12:38:45;26.70;56.50
61807;DHT22;47726;52.766;6.606;2022-08-05T12:41:13;26.60;56.40
61807;DHT22;47726;52.766;6.606;2022-08-05T12:43:54;26.50;55.80
61807;DHT22;47726;52.766;6.606;2022-08-05T12:46:28;26.40;54.60
61807;DHT22;47726;52.766;6.606;2022-08-05T12:51:27;26.10;55.10
61807;DHT22;47726;52.766;6.606;2022-08-05T12:53:58;26.00;55.70
61807;DHT22;47726;52.766;6.606;2022-08-05T12:56:25;26.00;56.10
61807;DHT22;47726;52.766;6.606;2022-08-05T12:59:20;26.00;56.10
61807;DHT22;47726;52.766;6.606;2022-08-05T13:02:01;25.90;54.80
61807;DHT22;47726;52.766;6.606;2022-08-05T13:04:28;25.80;55.00
61807;DHT22;47726;52.766;6.606;2022-08-05T13:06:59;25.80;55.40
61807;DHT22;47726;52.766;6.606;2022-08-05T13:09:26;25.70;55.10
61807;DHT22;47726;52.766;6.606;2022-08-05T13:12:03;25.70;55.50
61807;DHT22;47726;52.766;6.606;2022-08-05T13:14:36;25.60;55.70
61807;DHT22;47726;52.766;6.606;2022-08-05T13:17:27;25.50;56.40
61807;DHT22;47726;52.766;6.606;2022-08-05T13:20:04;25.50;55.60
61807;DHT22;47726;52.766;6.606;2022-08-05T13:22:33;25.40;54.30
61807;DHT22;47726;52.766;6.606;2022-08-05T13:25:00;25.40;55.40
61807;DHT22;47726;52.766;6.606;2022-08-05T13:27:30;25.50;55.30
61807;DHT22;47726;52.766;6.606;2022-08-05T13:29:56;25.50;55.20
61807;DHT22;47726;52.766;6.606;2022-08-05T13:32:23;25.40;55.00
61807;DHT22;47726;52.766;6.606;2022-08-05T13:34:50;25.40;55.80
61807;DHT22;47726;52.766;6.606;2022-08-05T13:37:17;25.30;55.10
61807;DHT22;47726;52.766;6.606;2022-08-05T13:39:43;25.30;54.60
61807;DHT22;47726;52.766;6.606;2022-08-05T13:42:09;25.20;54.60
61807;DHT22;47726;52.766;6.606;2022-08-05T13:44:35;25.20;54.70
61807;DHT22;47726;52.766;6.606;2022-08-05T13:47:01;25.10;54.50
61807;DHT22;47726;52.766;6.606;2022-08-05T13:49:27;25.10;55.00
61807;DHT22;47726;52.766;6.606;2022-08-05T13:51:53;25.00;55.00
61807;DHT22;47726;52.766;6.606;2022-08-05T13:54:18;24.90;54.60
61807;DHT22;47726;52.766;6.606;2022-08-05T13:56:45;24.90;54.60
61807;DHT22;47726;52.766;6.606;2022-08-05T13:59:11;24.90;55.00
61807;DHT22;47726;52.766;6.606;2022-08-05T14:01:37;24.90;55.30
61807;DHT22;47726;52.766;6.606;2022-08-05T14:04:03;24.80;55.30
61807;DHT22;47726;52.766;6.606;2022-08-05T14:06:47;24.70;55.40
61807;DHT22;47726;52.766;6.606;2022-08-05T14:09:13;24.60;55.10
61807;DHT22;47726;52.766;6.606;2022-08-05T14:11:38;24.60;55.60
61807;DHT22;47726;52.766;6.606;2022-08-05T14:14:07;24.50;55.80
61807;DHT22;47726;52.766;6.606;2022-08-05T14:16:33;24.50;55.40
61807;DHT22;47726;52.766;6.606;2022-08-05T14:18:59;24.40;55.80
61807;DHT22;47726;52.766;6.606;2022-08-05T14:21:25;24.40;56.00
61807;DHT22;47726;52.766;6.606;2022-08-05T14:23:51;24.30;56.40
61807;DHT22;47726;52.766;6.606;2022-08-05T14:26:17;24.40;57.30
61807;DHT22;47726;52.766;6.606;2022-08-05T14:28:43;24.50;58.10
61807;DHT22;47726;52.766;6.606;2022-08-05T14:31:09;24.40;58.60
61807;DHT22;47726;52.766;6.606;2022-08-05T14:33:34;24.50;58.50
61807;DHT22;47726;52.766;6.606;2022-08-05T14:36:00;24.60;58.00
61807;DHT22;47726;52.766;6.606;2022-08-05T14:38:27;24.70;58.00
61807;DHT22;47726;52.766;6.606;2022-08-05T14:40:53;24.60;57.70
61807;DHT22;47726;52.766;6.606;2022-08-05T14:43:19;24.50;57.50
61807;DHT22;47726;52.766;6.606;2022-08-05T14:45:44;24.50;57.70
61807;DHT22;47726;52.766;6.606;2022-08-05T14:48:28;24.40;58.00
61807;DHT22;47726;52.766;6.606;2022-08-05T14:50:54;24.30;58.00
61807;DHT22;47726;52.766;6.606;2022-08-05T14:53:20;24.30;58.00
61807;DHT22;47726;52.766;6.606;2022-08-05T14:55:45;24.30;58.60
61807;DHT22;47726;52.766;6.606;2022-08-05T14:58:11;24.30;58.40
61807;DHT22;47726;52.766;6.606;2022-08-05T15:00:37;24.30;58.40
61807;DHT22;47726;52.766;6.606;2022-08-05T15:03:03;24.20;58.20
61807;DHT22;47726;52.766;6.606;2022-08-05T15:05:31;24.20;58.30
61807;DHT22;47726;52.766;6.606;2022-08-05T15:07:57;24.10;57.60
61807;DHT22;47726;52.766;6.606;2022-08-05T15:10:23;24.10;58.20
61807;DHT22;47726;52.766;6.606;2022-08-05T15:12:48;24.10;58.30
61807;DHT22;47726;52.766;6.606;2022-08-05T15:15:14;24.20;59.30
61807;DHT22;47726;52.766;6.606;2022-08-05T15:17:40;24.20;59.10
61807;DHT22;47726;52.766;6.606;2022-08-05T15:20:07;24.20;58.80
61807;DHT22;47726;52.766;6.606;2022-08-05T15:22:33;24.10;58.70
61807;DHT22;47726;52.766;6.606;2022-08-05T15:24:59;24.00;59.00
61807;DHT22;47726;52.766;6.606;2022-08-05T15:27:25;24.10;59.30
61807;DHT22;47726;52.766;6.606;2022-08-05T15:29:51;24.10;59.50
61807;DHT22;47726;52.766;6.606;2022-08-05T15:32:17;24.10;59.00
61807;DHT22;47726;52.766;6.606;2022-08-05T15:34:42;24.10;58.80
61807;DHT22;47726;52.766;6.606;2022-08-05T15:37:08;23.90;58.50
61807;DHT22;47726;52.766;6.606;2022-08-05T15:39:34;23.90;58.60
61807;DHT22;47726;52.766;6.606;2022-08-05T15:41:59;23.80;58.90
61807;DHT22;47726;52.766;6.606;2022-08-05T15:44:26;23.70;59.10
61807;DHT22;47726;52.766;6.606;2022-08-05T15:46:52;23.70;59.50
61807;DHT22;47726;52.766;6.606;2022-08-05T15:49:17;23.70;59.70
61807;DHT22;47726;52.766;6.606;2022-08-05T15:51:43;23.60;59.80
61807;DHT22;47726;52.766;6.606;2022-08-05T15:54:09;23.60;59.90
61807;DHT22;47726;52.766;6.606;2022-08-05T15:56:35;23.50;60.20
61807;DHT22;47726;52.766;6.606;2022-08-05T15:59:00;23.50;60.30
61807;DHT22;47726;52.766;6.606;2022-08-05T16:01:26;23.40;60.50
61807;DHT22;47726;52.766;6.606;2022-08-05T16:03:52;23.40;60.60
61807;DHT22;47726;52.766;6.606;2022-08-05T16:06:18;23.40;60.80
61807;DHT22;47726;52.766;6.606;2022-08-05T16:08:44;23.30;60.60
61807;DHT22;47726;52.766;6.606;2022-08-05T16:11:09;23.20;60.80
61807;DHT22;47726;52.766;6.606;2022-08-05T16:13:36;23.20;60.80
61807;DHT22;47726;52.766;6.606;2022-08-05T16:16:02;23.10;60.40
61807;DHT22;47726;52.766;6.606;2022-08-05T16:18:28;23.00;60.90
61807;DHT22;47726;52.766;6.606;2022-08-05T16:20:53;22.90;61.30
61807;DHT22;47726;52.766;6.606;2022-08-05T16:23:19;22.90;61.40
61807;DHT22;47726;52.766;6.606;2022-08-05T16:25:45;22.90;61.30
61807;DHT22;47726;52.766;6.606;2022-08-05T16:28:10;22.80;61.30
61807;DHT22;47726;52.766;6.606;2022-08-05T16:30:37;22.90;61.40
61807;DHT22;47726;52.766;6.606;2022-08-05T16:33:03;22.90;61.10
61807;DHT22;47726;52.766;6.606;2022-08-05T16:35:29;22.80;60.70
61807;DHT22;47726;52.766;6.606;2022-08-05T16:37:55;22.90;60.50
61807;DHT22;47726;52.766;6.606;2022-08-05T16:40:20;22.90;60.50